Flight Track Log - Related Links

Times and Time Zones

All times are in EDT time to prevent confusion due to time zone crossing. See the N337JB flight status page for this flight to view local times or setup timezone preferences in your user account.

Time Position Orientation Groundspeed Altitude Reporting Facility
EDT Latitude Longitude Course Direction KTS MPH feet Rate Location/Type
Sun 03:59:15 PM 38.8559 -77.0040 308° West  Level FlightAware Approximate
Sun 04:00:15 PM 38.9000 -76.8807 275° West  Level FlightAware Approximate
Sun 04:01:37 PM 38.9144 -77.1017 325° Northwest 209 241 2,800  Level Washington Center
Sun 04:02:38 PM 38.9658 -77.1481 39° Northeast 214 246 4,900 2,410 Climbing Washington Center
Sun 04:03:39 PM 39.0208 -77.0906 57° Northeast 190 219 7,700 2,650 Climbing Washington Center
Sun 04:04:38 PM 39.0656 -77.0006 70° East 228 262 10,200 2,571 Climbing Washington Center
Sun 04:05:38 PM 39.0961 -76.8942 84° East 271 312 12,800 2,182 Climbing Washington Center
Sun 04:06:39 PM 39.1056 -76.7686 84° East 304 350 14,600 1,884 Climbing Washington Center
Sun 04:07:39 PM 39.1175 -76.6217 83° East 359 413 16,600 1,983 Climbing Washington Center
Sun 04:08:40 PM 39.1311 -76.4747 84° East 398 458 18,600 2,118 Climbing Washington Center
Sun 04:09:38 PM 39.1447 -76.3194 84° East 421 484 20,800 2,034 Climbing Washington Center
Sun 04:10:38 PM 39.1581 -76.1617 80° East 433 498 22,600 1,091 Climbing Washington Center
Sun 04:11:39 PM 39.1772 -76.0172 74° East 447 514 23,000 893 Climbing Washington Center
Sun 04:12:39 PM 39.2111 -75.8622 47° Northeast 452 520 24,400 1,500 Climbing Washington Center
Sun 04:13:39 PM 39.2925 -75.7497 43° Northeast 425 489 26,000 1,438 Climbing Washington Center
Sun 04:14:40 PM 39.3844 -75.6372 46° Northeast 425 489 27,300 1,240 Climbing Washington Center
Sun 04:15:40 PM 39.4697 -75.5244 45° Northeast 430 495 28,500 1,373 Climbing Washington Center
Sun 04:16:38 PM 39.5592 -75.4086 46° Northeast 441 507 30,000 962 Climbing Washington Center
Sun 04:18:16 PM 39.7003 -75.2175 49° Northeast 455 524 31,000 380 Climbing New York Center
Sun 04:19:16 PM 39.7886 -75.0853 47° Northeast 460 529 31,000  Level New York Center
Sun 04:20:17 PM 39.8742 -74.9661 47° Northeast 460 529 31,000  Level New York Center
Sun 04:21:17 PM 39.9731 -74.8258 50° Northeast 471 542 31,000  Level New York Center
Sun 04:22:15 PM 40.0567 -74.6978 50° Northeast 471 542 31,000  Level New York Center
Sun 04:23:18 PM 40.1444 -74.5614 49° Northeast 471 542 31,000  Level New York Center
Sun 04:25:16 PM 40.3172 -74.2961 50° Northeast 471 542 31,000  Level New York Center
Sun 04:26:16 PM 40.4025 -74.1642 50° Northeast 471 542 31,000 -300 Level New York Center
Sun 04:27:16 PM 40.4875 -74.0319 51° Northeast 471 542 30,400 -876 Descending New York Center
Sun 04:29:14 PM 40.6544 -73.7642 50° Northeast 507 583 28,400 -1,146 Descending Boston Center
Sun 04:30:14 PM 40.7417 -73.6261 50° Northeast 502 578 27,000 -1,900 Descending Boston Center
Sun 04:31:14 PM 40.8242 -73.4961 48° Northeast 482 555 24,600 -1,500 Descending Boston Center
Sun 04:32:14 PM 40.9044 -73.3764 49° Northeast 456 525 24,000 -300 Descending Boston Center
Sun 04:33:14 PM 40.9867 -73.2511 50° Northeast 444 511 24,000 -400 Level Boston Center
Sun 04:34:14 PM 41.0644 -73.1283 58° Northeast 438 504 23,200 -1,350 Descending Boston Center
Sun 04:35:14 PM 41.1278 -72.9911 64° Northeast 438 504 21,300 -1,900 Descending Boston Center
Sun 04:36:14 PM 41.1783 -72.8511 61° Northeast 428 493 19,400 -1,150 Descending Boston Center
Sun 04:37:14 PM 41.2350 -72.7161 63° Northeast 416 479 19,000 -200 Descending Boston Center
Sun 04:38:14 PM 41.2811 -72.5975 64° Northeast 405 466 19,000  Level Boston Center
Sun 04:39:14 PM 41.3375 -72.4456 63° Northeast 405 466 19,000  Level Boston Center
Sun 04:40:14 PM 41.3853 -72.3211 62° Northeast 410 472 19,000  Level Boston Center
Sun 04:41:14 PM 41.4456 -72.1714 63° Northeast 410 472 19,000  Level Boston Center
Sun 04:42:14 PM 41.4931 -72.0467 63° Northeast 410 472 19,000  Level Boston Center
Sun 04:43:14 PM 41.5489 -71.8992 64° Northeast 405 466 19,000  Level Boston Center
Sun 04:44:14 PM 41.5961 -71.7711 64° Northeast 405 466 19,000 -50 Level Boston Center
Sun 04:45:14 PM 41.6492 -71.6261 62° Northeast 405 466 18,900 -1,100 Descending Boston Center
Sun 04:46:14 PM 41.7025 -71.4919 61° Northeast 405 466 16,800 -1,950 Descending Boston Center
Sun 04:47:14 PM 41.7514 -71.3717 58° Northeast 384 442 15,000 -1,900 Descending Boston Center
Sun 04:48:14 PM 41.8025 -71.2622 59° Northeast 343 395 13,000 -1,850 Descending Boston Center
Sun 04:49:14 PM 41.8511 -71.1553 61° Northeast 337 388 11,300 -950 Descending Boston Center
Sun 04:50:14 PM 41.8939 -71.0511 61° Northeast 318 366 11,100 -150 Descending Boston Center
Sun 04:51:14 PM 41.9361 -70.9469 62° Northeast 311 358 11,000 -50 Descending Boston Center
Sun 04:52:14 PM 41.9725 -70.8539 60° Northeast 311 358 11,000 -450 Level Boston Center
Sun 04:53:14 PM 42.0128 -70.7608 47° Northeast 305 351 10,100 -1,250 Descending Boston Center
Sun 04:54:14 PM 42.0678 -70.6811 28° Northeast 292 336 8,500 -1,450 Descending Boston Center
Sun 04:55:14 PM 42.1339 -70.6344 North 271 312 7,200 -1,190 Descending Boston Center
Sun 04:56:20 PM 42.2167 -70.6167 360° North 256 295 6,000 -1,100 Descending Boston TRACON
Sun 04:57:14 PM 42.2833 -70.6167 352° North 255 293 5,000 -526 Descending Boston TRACON
Sun 04:58:14 PM 42.3442 -70.6283 357° North 248 285 5,000 -200 Level Boston Center
Sun 04:59:14 PM 42.3986 -70.6322 339° North 224 258 4,600 -500 Descending Boston Center
Sun 05:00:14 PM 42.4300 -70.6483 251° West 190 219 4,000 -431 Descending Boston Center
Sun 05:02:15 PM 42.4000 -70.7667 251° West 162 186 3,300 -530 Descending Boston TRACON
Sun 05:03:15 PM 42.3833 -70.8333 270° West 162 186 2,400 -857 Descending Boston TRACON
Sun 05:04:21 PM 42.3833 -70.8833 251° West 161 185 1,500 -810 Descending Boston TRACON
Sun 05:05:21 PM 42.3667 -70.9500 251° West 145 167 700 -800 Descending Boston TRACON

Login

Don't have an account? Register now (free) for customized features, flight alerts, and more!